Genegantslet, New York
Current Conditions -  °F | °C
As of 5:53 PM on Wednesday 26 Nov 2014 (Local Time) from KBGM Reporting Station
Haze Haze  
Wind Chill: 33°   Ceiling: 600
Heat Index: 41°   Visibility: 1mi
Dew Point: 27°   Wind: 14mph
Humidity: 57%   Direction: 350°N
Pressure: 29.93"   Gusts: NA
Location:  42.3542°N, 75.7469°W
Report Text: KBGM 262253Z 35012KT 1SM HZ BKN006 OVC012 05/M03 A2993 RMK AO2 SFC VIS 1 1/2 SLP149 P0004 T00501028 $
Loading
Personal Weather Stations






























Interactive Weather Map New forecast layout! Learn more

10-Day Weather Forecast

Advertisements
Track Severe Weather on mobile